createdAt,value
2022-09-18T00:01:32.413Z,16.60
2022-09-18T00:04:02.742Z,16.64
2022-09-18T00:06:32.280Z,16.58
2022-09-18T00:09:02.888Z,16.56
2022-09-18T00:11:38.495Z,16.39
2022-09-18T00:14:08.006Z,16.41
2022-09-18T00:16:36.791Z,16.31
2022-09-18T00:19:07.424Z,16.34
2022-09-18T00:21:37.498Z,16.44
2022-09-18T00:24:07.306Z,16.31
2022-09-18T00:26:36.710Z,16.26
2022-09-18T00:29:05.829Z,16.26
2022-09-18T00:31:36.510Z,16.31
2022-09-18T00:34:07.803Z,16.32
2022-09-18T00:36:36.586Z,16.26
2022-09-18T00:39:05.270Z,16.26
2022-09-18T00:41:36.099Z,16.23
2022-09-18T00:44:35.399Z,16.30
2022-09-18T00:47:16.172Z,16.28
2022-09-18T00:49:47.331Z,16.19
2022-09-18T00:52:18.075Z,16.25
2022-09-18T00:54:49.555Z,16.27
2022-09-18T00:57:20.360Z,16.33
2022-09-18T00:59:51.005Z,16.35
2022-09-18T01:02:19.447Z,16.35
2022-09-18T01:04:48.432Z,16.25
2022-09-18T01:07:29.223Z,16.22
2022-09-18T01:10:07.278Z,16.13
2022-09-18T01:12:46.924Z,16.19
2022-09-18T01:15:26.888Z,16.17
2022-09-18T01:18:04.934Z,16.13
2022-09-18T01:20:56.690Z,16.17
2022-09-18T01:23:51.926Z,16.18
2022-09-18T01:26:29.858Z,16.25
2022-09-18T01:29:04.966Z,16.23
2022-09-18T01:31:39.836Z,16.24
2022-09-18T01:34:14.836Z,16.24
2022-09-18T01:36:50.172Z,16.24
2022-09-18T01:39:24.042Z,16.28
2022-09-18T01:41:53.176Z,16.31
2022-09-18T01:44:27.687Z,16.33
2022-09-18T01:46:59.799Z,16.39
2022-09-18T01:49:34.314Z,16.42
2022-09-18T01:52:08.681Z,16.39
2022-09-18T01:54:46.175Z,16.33
2022-09-18T01:57:20.811Z,16.28
2022-09-18T01:59:57.208Z,16.45
2022-09-18T02:02:31.179Z,16.40
2022-09-18T02:05:02.198Z,16.43
2022-09-18T02:07:37.078Z,16.46
2022-09-18T02:10:07.334Z,16.48
2022-09-18T02:12:37.546Z,16.59
2022-09-18T02:15:12.877Z,16.48
2022-09-18T02:17:44.808Z,16.40
2022-09-18T02:20:19.938Z,16.47
2022-09-18T02:22:52.766Z,16.41
2022-09-18T02:25:25.392Z,16.41
2022-09-18T02:27:55.979Z,16.35
2022-09-18T02:30:27.068Z,16.38
2022-09-18T02:32:56.273Z,16.35
2022-09-18T02:35:29.077Z,16.30
2022-09-18T02:38:05.754Z,16.25
2022-09-18T02:40:44.732Z,16.31
2022-09-18T02:43:25.247Z,16.33
2022-09-18T02:46:05.061Z,16.34
2022-09-18T02:48:49.114Z,16.32
2022-09-18T02:51:28.622Z,16.28
2022-09-18T02:54:03.771Z,16.30
2022-09-18T02:56:40.630Z,16.35
2022-09-18T02:59:14.468Z,16.43
2022-09-18T03:01:46.694Z,16.46
2022-09-18T03:04:20.988Z,16.56
2022-09-18T03:06:49.021Z,16.62
2022-09-18T03:09:17.238Z,16.63
2022-09-18T03:11:45.584Z,16.65
2022-09-18T03:14:13.998Z,16.71
2022-09-18T03:16:43.603Z,16.77
2022-09-18T03:19:11.944Z,16.84
2022-09-18T03:21:40.185Z,16.71
2022-09-18T03:24:08.964Z,16.65
2022-09-18T03:26:37.302Z,16.69
2022-09-18T03:29:09.789Z,16.69
2022-09-18T03:31:38.112Z,16.63
2022-09-18T03:34:08.124Z,16.64
2022-09-18T03:36:36.394Z,16.54
2022-09-18T03:39:05.053Z,16.58
2022-09-18T03:41:33.567Z,16.52
2022-09-18T03:44:01.642Z,16.43
2022-09-18T03:46:29.679Z,16.37
2022-09-18T03:48:58.099Z,16.34
2022-09-18T03:51:27.631Z,16.32
2022-09-18T03:53:55.813Z,16.30
2022-09-18T03:56:23.830Z,16.33
2022-09-18T03:58:53.344Z,16.35
2022-09-18T04:01:21.576Z,16.30
2022-09-18T04:03:49.889Z,16.19
2022-09-18T04:06:17.956Z,15.98
2022-09-18T04:08:47.405Z,15.77
2022-09-18T04:11:15.390Z,15.66
2022-09-18T04:13:43.363Z,15.46
2022-09-18T04:16:11.462Z,15.20
2022-09-18T04:18:39.536Z,15.08
2022-09-18T04:21:07.721Z,15.00
2022-09-18T04:23:35.762Z,14.89
2022-09-18T04:26:09.968Z,14.87
2022-09-18T04:28:39.120Z,14.80
2022-09-18T04:31:07.565Z,14.75
2022-09-18T04:33:35.674Z,14.69
2022-09-18T04:36:03.962Z,14.70
2022-09-18T04:38:32.140Z,14.64
2022-09-18T04:41:01.447Z,14.71
2022-09-18T04:43:30.838Z,14.66
2022-09-18T04:45:59.776Z,14.71
2022-09-18T04:48:27.932Z,14.73
2022-09-18T04:50:56.067Z,14.71
2022-09-18T04:53:24.036Z,14.89
2022-09-18T04:55:52.282Z,14.94
2022-09-18T04:58:21.109Z,15.05
2022-09-18T05:00:51.270Z,15.08
2022-09-18T05:03:19.547Z,15.15
2022-09-18T05:05:48.411Z,15.22
2022-09-18T05:08:16.413Z,15.35
2022-09-18T05:10:44.581Z,15.40
2022-09-18T05:13:12.655Z,15.48
2022-09-18T05:15:40.906Z,15.54
2022-09-18T05:18:12.700Z,15.57
2022-09-18T05:20:40.875Z,15.69
2022-09-18T05:23:08.900Z,15.72
2022-09-18T05:25:37.020Z,15.67
2022-09-18T05:28:05.931Z,15.71
2022-09-18T05:30:34.106Z,15.71
2022-09-18T05:33:03.763Z,15.70
2022-09-18T05:35:34.879Z,15.62
2022-09-18T05:38:04.136Z,15.58
2022-09-18T05:40:35.121Z,15.50
2022-09-18T05:43:04.079Z,15.59
2022-09-18T05:45:32.548Z,15.53
2022-09-18T05:48:03.354Z,15.60
2022-09-18T05:50:33.139Z,15.53
2022-09-18T05:53:01.878Z,15.58
2022-09-18T05:55:31.980Z,15.60
2022-09-18T05:58:03.633Z,15.74
2022-09-18T06:00:33.849Z,15.90
2022-09-18T06:03:03.995Z,15.95
2022-09-18T06:05:35.341Z,15.90
2022-09-18T06:08:04.398Z,15.92
2022-09-18T06:10:34.663Z,15.95
2022-09-18T06:13:03.661Z,16.00
2022-09-18T06:15:32.259Z,15.99
2022-09-18T06:18:00.614Z,16.00
2022-09-18T06:20:28.883Z,16.00
2022-09-18T06:23:01.870Z,15.94
2022-09-18T06:25:30.598Z,16.01
2022-09-18T06:28:00.334Z,16.17
2022-09-18T06:30:30.201Z,16.30
2022-09-18T06:33:02.976Z,16.17
2022-09-18T06:35:31.431Z,16.21
2022-09-18T06:38:03.991Z,16.19
2022-09-18T06:40:33.103Z,16.14
2022-09-18T06:43:02.833Z,16.25
2022-09-18T06:45:32.163Z,16.06
2022-09-18T06:48:02.892Z,16.12
2022-09-18T06:50:31.014Z,16.31
2022-09-18T06:53:07.655Z,16.30
2022-09-18T06:55:38.211Z,16.15
2022-09-18T06:58:06.424Z,16.18
2022-09-18T07:00:34.619Z,16.20
2022-09-18T07:03:03.978Z,16.33
2022-09-18T07:05:34.147Z,16.32
2022-09-18T07:08:04.060Z,16.21
2022-09-18T07:10:32.053Z,16.28
2022-09-18T07:13:02.355Z,16.43
2022-09-18T07:15:30.613Z,16.44
2022-09-18T07:18:00.269Z,16.13
2022-09-18T07:20:29.597Z,15.84
2022-09-18T07:23:17.897Z,15.87
2022-09-18T07:25:46.811Z,15.84
2022-09-18T07:28:14.985Z,15.77
2022-09-18T07:30:43.343Z,15.89
2022-09-18T07:33:11.982Z,16.00
2022-09-18T07:35:40.689Z,16.23
2022-09-18T07:38:09.289Z,16.32
2022-09-18T07:40:40.549Z,16.31
2022-09-18T07:43:11.329Z,16.30
2022-09-18T07:45:39.962Z,16.42
2022-09-18T07:48:09.381Z,16.54
2022-09-18T07:50:37.866Z,16.41
2022-09-18T07:53:07.999Z,16.21
2022-09-18T07:55:38.181Z,16.18
2022-09-18T07:58:08.405Z,16.16
2022-09-18T08:00:38.221Z,16.00
2022-09-18T08:03:07.918Z,15.96
2022-09-18T08:05:36.435Z,15.76
2022-09-18T08:08:05.385Z,15.68
2022-09-18T08:10:35.413Z,15.61
2022-09-18T08:13:05.325Z,15.52
2022-09-18T08:15:35.090Z,15.42
2022-09-18T08:18:03.075Z,15.45
2022-09-18T08:20:31.296Z,15.27
2022-09-18T08:22:59.519Z,15.37
2022-09-18T08:25:28.588Z,15.37
2022-09-18T08:28:00.362Z,15.31
2022-09-18T08:30:30.820Z,15.29
2022-09-18T08:33:00.644Z,15.31
2022-09-18T08:35:28.996Z,15.39
2022-09-18T08:37:58.245Z,15.48
2022-09-18T08:40:42.393Z,15.55
2022-09-18T08:43:20.669Z,15.65
2022-09-18T08:45:58.684Z,15.67
2022-09-18T08:48:30.924Z,15.68
2022-09-18T08:51:05.036Z,15.88
2022-09-18T08:53:37.770Z,15.83
2022-09-18T08:56:08.870Z,15.73
2022-09-18T08:58:43.803Z,15.75
2022-09-18T09:01:19.184Z,15.88
2022-09-18T09:03:57.176Z,16.11
2022-09-18T09:06:42.509Z,16.12
2022-09-18T09:09:29.161Z,16.09
2022-09-18T09:12:04.650Z,16.11
2022-09-18T09:14:58.146Z,16.31
2022-09-18T09:17:40.085Z,16.57
2022-09-18T09:20:21.439Z,16.87
2022-09-18T09:22:57.985Z,16.94
2022-09-18T09:25:34.038Z,17.02
2022-09-18T09:28:16.199Z,17.13
2022-09-18T09:30:48.479Z,17.31
2022-09-18T09:33:23.419Z,17.28
2022-09-18T09:35:56.148Z,17.21
2022-09-18T09:38:36.685Z,17.46
2022-09-18T09:41:14.997Z,17.58
2022-09-18T09:43:50.709Z,17.82
2022-09-18T09:46:30.022Z,17.78
2022-09-18T09:49:06.805Z,17.60
2022-09-18T09:51:46.223Z,17.66
2022-09-18T09:54:14.335Z,17.83
2022-09-18T09:56:52.391Z,17.89
2022-09-18T09:59:28.581Z,17.81
2022-09-18T10:02:01.754Z,17.65
2022-09-18T10:04:39.210Z,17.50
2022-09-18T10:07:16.502Z,17.48
2022-09-18T10:09:49.931Z,17.40
2022-09-18T10:12:27.089Z,17.52
2022-09-18T10:15:06.645Z,17.56
2022-09-18T10:17:39.442Z,17.56
2022-09-18T10:20:16.559Z,17.60
2022-09-18T10:22:44.710Z,17.68
2022-09-18T10:25:21.935Z,17.80
2022-09-18T10:27:49.945Z,17.98
2022-09-18T10:30:18.358Z,18.02
2022-09-18T10:32:46.488Z,17.84
2022-09-18T10:35:50.117Z,17.63
2022-09-18T10:38:34.398Z,17.65
2022-09-18T10:41:28.124Z,17.93
2022-09-18T10:44:00.705Z,18.13
2022-09-18T10:46:34.569Z,18.15
2022-09-18T10:49:18.644Z,18.24
2022-09-18T10:51:46.869Z,18.24
2022-09-18T10:54:23.234Z,18.28
2022-09-18T10:56:51.666Z,18.41
2022-09-18T10:59:35.059Z,18.35
2022-09-18T11:02:07.014Z,18.22
2022-09-18T11:04:35.814Z,18.25
2022-09-18T11:07:07.641Z,18.25
2022-09-18T11:09:41.432Z,18.22
2022-09-18T11:12:19.030Z,18.42
2022-09-18T11:14:51.655Z,18.35
2022-09-18T11:17:26.034Z,18.55
2022-09-18T11:19:57.615Z,18.54
2022-09-18T11:22:40.330Z,18.59
2022-09-18T11:25:19.763Z,18.56
2022-09-18T11:27:51.191Z,18.68
2022-09-18T11:30:24.265Z,18.73
2022-09-18T11:32:55.741Z,18.64
2022-09-18T11:35:23.981Z,18.60
2022-09-18T11:37:54.720Z,18.68
2022-09-18T11:40:27.211Z,18.87
2022-09-18T11:42:56.340Z,18.85
2022-09-18T11:45:36.764Z,18.85
2022-09-18T11:48:14.977Z,18.85
2022-09-18T11:50:43.273Z,18.75
2022-09-18T11:53:16.039Z,18.72
2022-09-18T11:55:49.755Z,18.88
2022-09-18T11:58:23.440Z,18.96
2022-09-18T12:01:07.993Z,18.86
2022-09-18T12:03:42.419Z,18.92
2022-09-18T12:06:16.625Z,18.92
2022-09-18T12:08:51.254Z,19.00
2022-09-18T12:11:31.949Z,19.09
2022-09-18T12:14:09.184Z,19.08
2022-09-18T12:16:46.235Z,19.05
2022-09-18T12:19:21.062Z,19.13
2022-09-18T12:21:56.542Z,19.19
2022-09-18T12:24:24.747Z,19.13
2022-09-18T12:27:13.201Z,19.11
2022-09-18T12:30:06.424Z,19.19
2022-09-18T12:33:07.441Z,19.26
2022-09-18T12:35:47.891Z,19.16
2022-09-18T12:38:34.689Z,19.11
2022-09-18T12:41:27.345Z,19.04
2022-09-18T12:44:29.156Z,18.92
2022-09-18T12:47:13.743Z,18.88
2022-09-18T12:50:17.827Z,18.92
2022-09-18T12:53:08.676Z,18.97
2022-09-18T12:56:03.297Z,18.95
2022-09-18T12:59:15.605Z,18.95
2022-09-18T13:01:50.198Z,18.96
2022-09-18T13:04:25.148Z,18.98
2022-09-18T13:06:58.068Z,19.02
2022-09-18T13:09:31.268Z,19.10
2022-09-18T13:12:03.219Z,19.06
2022-09-18T13:14:37.571Z,19.02
2022-09-18T13:17:16.795Z,19.08
2022-09-18T13:19:50.754Z,19.07
2022-09-18T13:22:21.291Z,19.10
2022-09-18T13:24:55.768Z,19.10
2022-09-18T13:27:26.207Z,19.04
2022-09-18T13:30:00.610Z,19.08
2022-09-18T13:32:43.544Z,19.06
2022-09-18T13:35:29.818Z,19.11
2022-09-18T13:38:07.919Z,18.93
2022-09-18T13:40:39.334Z,18.90
2022-09-18T13:43:25.400Z,18.91
2022-09-18T13:45:54.618Z,18.87
2022-09-18T13:48:29.841Z,18.78
2022-09-18T13:51:00.771Z,18.69
2022-09-18T13:53:34.951Z,18.57
2022-09-18T13:56:04.290Z,18.56
2022-09-18T13:58:54.506Z,18.53
2022-09-18T14:02:04.073Z,18.52
2022-09-18T14:05:02.362Z,18.46
2022-09-18T14:07:54.727Z,18.44
2022-09-18T14:10:27.164Z,18.47
2022-09-18T14:13:30.484Z,18.50
2022-09-18T14:16:06.080Z,18.60
2022-09-18T14:18:38.819Z,18.67
2022-09-18T14:21:28.528Z,18.73
2022-09-18T14:24:23.388Z,18.65
2022-09-18T14:27:26.226Z,18.66
2022-09-18T14:29:59.688Z,18.60
2022-09-18T14:32:29.546Z,18.61
2022-09-18T14:35:20.665Z,18.68
2022-09-18T14:37:50.164Z,18.64
2022-09-18T14:40:24.889Z,18.62
2022-09-18T14:42:53.322Z,18.62
2022-09-18T14:45:29.887Z,18.68
2022-09-18T14:47:59.191Z,18.62
2022-09-18T14:50:37.781Z,18.60
2022-09-18T14:53:21.708Z,18.61
2022-09-18T14:55:53.576Z,18.52
2022-09-18T14:58:24.953Z,18.55
2022-09-18T15:00:55.522Z,18.47
2022-09-18T15:03:27.432Z,18.49
2022-09-18T15:06:06.798Z,18.46
2022-09-18T15:08:39.006Z,18.47
2022-09-18T15:11:07.669Z,18.50
2022-09-18T15:13:38.833Z,18.47
2022-09-18T15:16:07.633Z,18.43
2022-09-18T15:18:42.965Z,18.37
2022-09-18T15:21:24.469Z,18.33
2022-09-18T15:23:56.046Z,18.25
2022-09-18T15:26:29.145Z,18.22
2022-09-18T15:28:58.440Z,18.18
2022-09-18T15:31:31.544Z,18.13
2022-09-18T15:34:04.399Z,18.15
2022-09-18T15:36:35.617Z,18.16
2022-09-18T15:39:06.159Z,18.11
2022-09-18T15:41:42.634Z,18.15
2022-09-18T15:45:10.248Z,18.07
2022-09-18T15:47:40.832Z,17.94
2022-09-18T15:50:44.957Z,17.79
2022-09-18T15:53:23.329Z,17.69
2022-09-18T15:56:05.222Z,17.62
2022-09-18T15:58:38.708Z,17.48
2022-09-18T16:01:09.321Z,17.34
2022-09-18T16:03:42.642Z,17.24
2022-09-18T16:06:23.899Z,17.15
2022-09-18T16:08:55.569Z,17.07
2022-09-18T16:11:47.508Z,17.02
2022-09-18T16:14:44.369Z,16.95
2022-09-18T16:17:36.996Z,16.90
2022-09-18T16:20:30.518Z,16.89
2022-09-18T16:23:05.948Z,16.79
2022-09-18T16:25:37.969Z,16.74
2022-09-18T16:28:24.219Z,16.69
2022-09-18T16:30:53.060Z,16.67
2022-09-18T16:33:23.667Z,16.65
2022-09-18T16:35:57.715Z,16.59
2022-09-18T16:38:25.700Z,16.53
2022-09-18T16:40:55.083Z,16.47
2022-09-18T16:43:24.651Z,16.41
2022-09-18T16:45:52.871Z,16.37
2022-09-18T16:48:21.130Z,16.32
2022-09-18T16:50:49.829Z,16.31
2022-09-18T16:53:17.807Z,16.30
2022-09-18T16:55:48.705Z,16.27
2022-09-18T16:58:20.073Z,16.21
2022-09-18T17:00:49.764Z,16.14
2022-09-18T17:03:19.222Z,16.06
2022-09-18T17:05:47.572Z,16.05
2022-09-18T17:08:15.872Z,16.01
2022-09-18T17:10:45.327Z,16.02
2022-09-18T17:13:14.135Z,16.01
2022-09-18T17:15:42.361Z,15.96
2022-09-18T17:18:11.777Z,15.94
2022-09-18T17:20:40.105Z,15.99
2022-09-18T17:23:08.327Z,15.91
2022-09-18T17:25:37.223Z,15.86
2022-09-18T17:28:05.380Z,15.76
2022-09-18T17:30:33.490Z,15.66
2022-09-18T17:33:02.154Z,15.57
2022-09-18T17:35:31.719Z,15.47
2022-09-18T17:38:00.161Z,15.42
2022-09-18T17:40:28.528Z,15.40
2022-09-18T17:42:56.755Z,15.30
2022-09-18T17:45:24.824Z,15.25
2022-09-18T17:47:55.012Z,15.18
2022-09-18T17:50:24.817Z,15.21
2022-09-18T17:52:54.647Z,15.13
2022-09-18T17:55:22.830Z,15.08
2022-09-18T17:57:53.082Z,14.97
2022-09-18T18:00:21.849Z,14.96
2022-09-18T18:02:50.245Z,14.94
2022-09-18T18:05:19.334Z,14.92
2022-09-18T18:07:47.400Z,14.90
2022-09-18T18:10:16.930Z,14.88
2022-09-18T18:12:45.502Z,14.88
2022-09-18T18:15:13.896Z,14.89
2022-09-18T18:17:43.073Z,14.87
2022-09-18T18:20:11.796Z,14.86
2022-09-18T18:22:39.999Z,14.84
2022-09-18T18:25:09.768Z,14.87
2022-09-18T18:27:39.290Z,14.89
2022-09-18T18:30:08.925Z,14.87
2022-09-18T18:32:37.012Z,14.85
2022-09-18T18:35:05.950Z,14.79
2022-09-18T18:37:34.099Z,14.82
2022-09-18T18:40:02.285Z,14.81
2022-09-18T18:42:30.419Z,14.89
2022-09-18T18:45:01.145Z,14.93
2022-09-18T18:47:29.947Z,14.94
2022-09-18T18:49:58.221Z,14.92
2022-09-18T18:52:26.680Z,14.90
2022-09-18T18:54:54.862Z,14.92
2022-09-18T18:57:23.246Z,14.83
2022-09-18T18:59:51.518Z,14.81
2022-09-18T19:02:21.476Z,14.78
2022-09-18T19:04:49.682Z,14.80
2022-09-18T19:07:17.737Z,14.75
2022-09-18T19:09:45.804Z,14.69
2022-09-18T19:12:14.262Z,14.70
2022-09-18T19:14:42.491Z,14.75
2022-09-18T19:17:11.073Z,14.73
2022-09-18T19:19:40.908Z,14.74
2022-09-18T19:22:15.287Z,14.72
2022-09-18T19:24:44.042Z,14.68
2022-09-18T19:27:12.681Z,14.63
2022-09-18T19:29:40.769Z,14.63
2022-09-18T19:32:09.256Z,14.61
2022-09-18T19:34:37.502Z,14.63
2022-09-18T19:37:11.727Z,14.61
2022-09-18T19:39:40.882Z,14.65
2022-09-18T19:42:14.945Z,14.60
2022-09-18T19:44:46.922Z,14.55
2022-09-18T19:47:18.654Z,14.51
2022-09-18T19:49:47.164Z,14.43
2022-09-18T19:52:19.271Z,14.38
2022-09-18T19:54:48.444Z,14.36
2022-09-18T19:57:16.711Z,14.34
2022-09-18T19:59:45.146Z,14.32
2022-09-18T20:02:14.932Z,14.35
2022-09-18T20:04:44.506Z,14.33
2022-09-18T20:07:13.096Z,14.34
2022-09-18T20:09:45.977Z,14.35
2022-09-18T20:12:14.831Z,14.32
2022-09-18T20:14:42.846Z,14.28
2022-09-18T20:17:11.321Z,14.22
2022-09-18T20:19:39.411Z,14.21
2022-09-18T20:22:08.387Z,14.18
2022-09-18T20:24:36.680Z,14.20
2022-09-18T20:27:12.660Z,14.18
2022-09-18T20:29:41.746Z,14.22
2022-09-18T20:32:10.183Z,14.25
2022-09-18T20:34:38.413Z,14.27
2022-09-18T20:37:07.329Z,14.30
2022-09-18T20:39:35.319Z,14.31
2022-09-18T20:42:03.759Z,14.34
2022-09-18T20:44:35.125Z,14.33
2022-09-18T20:47:03.380Z,14.33
2022-09-18T20:49:32.170Z,14.33
2022-09-18T20:52:03.701Z,14.27
2022-09-18T20:54:31.867Z,14.26
2022-09-18T20:57:01.410Z,14.23
2022-09-18T20:59:29.530Z,14.23
2022-09-18T21:01:59.555Z,14.22
2022-09-18T21:04:27.663Z,14.20
2022-09-18T21:06:56.681Z,14.21
2022-09-18T21:09:27.439Z,14.20
2022-09-18T21:11:57.597Z,14.23
2022-09-18T21:14:27.522Z,14.23
2022-09-18T21:16:56.057Z,14.23
2022-09-18T21:19:27.276Z,14.21
2022-09-18T21:21:56.690Z,14.20
2022-09-18T21:24:25.782Z,14.19
2022-09-18T21:26:53.830Z,14.18
2022-09-18T21:29:25.192Z,14.15
2022-09-18T21:31:55.209Z,14.17
2022-09-18T21:34:27.074Z,14.21
2022-09-18T21:36:57.842Z,14.18
2022-09-18T21:39:28.236Z,14.11
2022-09-18T21:41:56.368Z,14.06
2022-09-18T21:44:27.305Z,14.02
2022-09-18T21:46:56.623Z,13.98
2022-09-18T21:49:27.822Z,13.95
2022-09-18T21:51:57.788Z,13.88
2022-09-18T21:54:26.387Z,13.87
2022-09-18T21:56:55.543Z,13.84
2022-09-18T21:59:26.547Z,13.84
2022-09-18T22:01:55.664Z,13.87
2022-09-18T22:04:27.852Z,13.89
2022-09-18T22:06:58.381Z,13.91
2022-09-18T22:09:28.929Z,13.90
2022-09-18T22:11:58.023Z,13.94
2022-09-18T22:14:32.153Z,13.95
2022-09-18T22:17:01.667Z,13.99
2022-09-18T22:19:33.216Z,14.00
2022-09-18T22:22:01.886Z,13.95
2022-09-18T22:24:30.847Z,13.89
2022-09-18T22:27:02.596Z,13.87
2022-09-18T22:29:32.919Z,13.81
2022-09-18T22:32:02.199Z,13.77
2022-09-18T22:34:34.946Z,13.76
2022-09-18T22:37:03.600Z,13.70
2022-09-18T22:39:31.703Z,13.69
2022-09-18T22:41:59.880Z,13.72
2022-09-18T22:44:27.946Z,13.64
2022-09-18T22:46:55.933Z,13.57
2022-09-18T22:49:24.704Z,13.57
2022-09-18T22:51:54.175Z,13.52
2022-09-18T22:54:26.457Z,13.52
2022-09-18T22:56:56.657Z,13.53
2022-09-18T22:59:26.563Z,13.45
2022-09-18T23:01:57.698Z,13.35
2022-09-18T23:04:29.871Z,13.27
2022-09-18T23:07:00.438Z,13.28
2022-09-18T23:09:29.298Z,13.23
2022-09-18T23:11:59.010Z,13.12
2022-09-18T23:14:29.043Z,12.97
2022-09-18T23:16:58.436Z,12.90
2022-09-18T23:19:28.062Z,12.83
2022-09-18T23:21:57.522Z,12.71
2022-09-18T23:24:27.765Z,12.66
2022-09-18T23:26:58.954Z,12.64
2022-09-18T23:29:28.750Z,12.60
2022-09-18T23:31:57.698Z,12.66
2022-09-18T23:34:28.930Z,12.70
2022-09-18T23:36:58.217Z,12.67
2022-09-18T23:39:29.911Z,12.60
2022-09-18T23:41:59.415Z,12.63
2022-09-18T23:44:31.192Z,12.61
2022-09-18T23:47:00.151Z,12.56
2022-09-18T23:49:28.636Z,12.57
2022-09-18T23:51:57.442Z,12.49
2022-09-18T23:54:28.053Z,12.50
2022-09-18T23:56:56.706Z,12.48
2022-09-18T23:59:26.427Z,12.54
